Terminal Aerodrome Forecast
Issued by NWS Sioux Falls, SD

Home | Current Version | Previous Version | Graphics & Text | Print | Product List | Glossary Off
Versions: 1 2 3 4 5 6 7 8 9 10 11 12 13 14 15 16 17 18 19 20 21 22 23 24

463
FTUS43 KFSD 101549 AAB
TAFFSD
TAF AMD
KFSD 101549Z 1016/1112 12010KT 5SM -SN BR FEW015 OVC050
     FM101700 11012KT P6SM OVC025
     FM110200 07007KT P6SM OVC015
     FM110800 11005KT P6SM OVC025=

USA.gov is the U.S. government's official web portal to all federal, state and local government web resources and services.